| time (UTC) | temp F | wind direction | speed MPH | gust MPH | rain 1hr in | rain 24hr in | rain mn in | humidity % | barometer mb |
| 20260510201439 | 74 | 47 | 1.0 | 1.0 | 0.00 | 0.00 | 0.00 | 45 | 1019.3 |
| 20260510200935 | 74 | 40 | 0.0 | 0.0 | 0.00 | 0.00 | 0.00 | 47 | 1019.5 |
| 20260510200431 | 74 | 93 | 0.0 | 1.0 | 0.00 | 0.00 | 0.00 | 45 | 1019.7 |
| 20260510195924 | 73 | 41 | 0.0 | 2.0 | 0.00 | 0.00 | 0.00 | 44 | 1019.4 |
| 20260510195421 | 73 | 104 | 1.0 | 2.0 | 0.00 | 0.00 | 0.00 | 47 | 1019.5 |
| 20260510194916 | 74 | 41 | 1.0 | 4.0 | 0.00 | 0.00 | 0.00 | 44 | 1019.5 |
| 20260510194413 | 75 | 76 | 1.0 | 4.0 | 0.00 | 0.00 | 0.00 | 47 | 1019.8 |
| 20260510193909 | 74 | 104 | 0.0 | 1.0 | 0.00 | 0.00 | 0.00 | 48 | 1019.8 |
| 20260510193404 | 73 | 71 | 0.0 | 1.0 | 0.00 | 0.00 | 0.00 | 49 | 1019.5 |
| 20260510192900 | 73 | 33 | 0.0 | 1.0 | 0.00 | 0.00 | 0.00 | 50 | 1019.7 |
| 20260510192355 | 73 | 77 | 0.0 | 1.0 | 0.00 | 0.00 | 0.00 | 51 | 1019.6 |
| 20260510191850 | 72 | 45 | 1.0 | 1.0 | 0.00 | 0.00 | 0.00 | 48 | 1019.7 |
| 20260510191347 | 72 | 49 | 1.0 | 1.0 | 0.00 | 0.00 | 0.00 | 52 | 1019.4 |
| 20260510190844 | 73 | 45 | 2.0 | 3.0 | 0.00 | 0.00 | 0.00 | 46 | 1019.6 |
| 20260510190342 | 72 | 37 | 1.0 | 3.0 | 0.00 | 0.00 | 0.00 | 52 | 1019.7 |
| 20260510185838 | 73 | 41 | 2.0 | 4.0 | 0.00 | 0.00 | 0.00 | 48 | 1019.6 |
| 20260510185336 | 73 | 44 | 1.0 | 2.0 | 0.00 | 0.00 | 0.00 | 50 | 1019.7 |
| 20260510184833 | 73 | 54 | 0.0 | 2.0 | 0.00 | 0.00 | 0.00 | 52 | 1019.4 |
| 20260510184330 | 73 | 62 | 0.0 | 2.0 | 0.00 | 0.00 | 0.00 | 54 | 1019.5 |
| 20260510183830 | 74 | 41 | 1.0 | 7.0 | 0.00 | 0.00 | 0.00 | 55 | 1019.4 |
| 20260510183326 | 74 | 47 | 0.0 | 2.0 | 0.00 | 0.00 | 0.00 | 55 | 1019.2 |
| 20260510182822 | 75 | 9 | 3.0 | 4.0 | 0.00 | 0.00 | 0.00 | 52 | 1019.0 |
| 20260510182318 | 75 | 79 | 0.0 | 3.0 | 0.00 | 0.00 | 0.00 | 57 | 1019.0 |
| 20260510181814 | 75 | 320 | 0.0 | 1.0 | 0.00 | 0.00 | 0.00 | 58 | 1018.9 |
| 20260510181311 | 76 | 21 | 3.0 | 3.0 | 0.00 | 0.00 | 0.00 | 55 | 1019.0 |
| 20260510180807 | 76 | 22 | 2.0 | 6.0 | 0.00 | 0.00 | 0.00 | 57 | 1019.0 |
| 20260510180305 | 76 | 41 | 1.0 | 2.0 | 0.00 | 0.00 | 0.00 | 56 | 1019.0 |
| 20260510175801 | 75 | 49 | 0.0 | 1.0 | 0.00 | 0.00 | 0.00 | 58 | 1019.0 |
| 20260510175257 | 74 | 60 | 0.0 | 1.0 | 0.00 | 0.00 | 0.00 | 60 | 1019.1 |
| 20260510174754 | 74 | 43 | 2.0 | 3.0 | 0.00 | 0.00 | 0.00 | 57 | 1019.2 |
| 20260510174252 | 73 | 47 | 2.0 | 3.0 | 0.00 | 0.00 | 0.00 | 59 | 1019.1 |
| 20260510173748 | 74 | 341 | 1.0 | 3.0 | 0.00 | 0.00 | 0.00 | 58 | 1019.1 |
| 20260510173243 | 75 | 76 | 0.0 | 2.0 | 0.00 | 0.00 | 0.00 | 59 | 1019.3 |
| 20260510172739 | 75 | 109 | 0.0 | 2.0 | 0.00 | 0.00 | 0.00 | 57 | 1019.2 |
| 20260510172235 | 76 | 41 | 1.0 | 2.0 | 0.00 | 0.00 | 0.00 | 54 | 1019.2 |
| 20260510171732 | 76 | 31 | 0.0 | 4.0 | 0.00 | 0.00 | 0.00 | 56 | 1019.5 |
| 20260510171230 | 76 | 350 | 2.0 | 4.0 | 0.00 | 0.00 | 0.00 | 54 | 1019.3 |
| 20260510170727 | 76 | 118 | 2.0 | 3.0 | 0.00 | 0.00 | 0.00 | 55 | 1019.4 |
| 20260510170222 | 75 | 43 | 0.0 | 1.0 | 0.00 | 0.00 | 0.00 | 57 | 1019.2 |
| 20260510165718 | 77 | 62 | 1.0 | 1.0 | 0.00 | 0.00 | 0.00 | 55 | 1019.4 |
| 20260510165215 | 76 | 15 | 2.0 | 4.0 | 0.00 | 0.00 | 0.00 | 57 | 1019.3 |
| 20260510164712 | 76 | 118 | 0.0 | 4.0 | 0.00 | 0.00 | 0.00 | 57 | 1019.0 |
| 20260510164209 | 76 | 65 | 1.0 | 1.0 | 0.00 | 0.00 | 0.00 | 56 | 1019.1 |
| 20260510163704 | 75 | 29 | 0.0 | 2.0 | 0.00 | 0.00 | 0.00 | 58 | 1019.3 |
| 20260510163201 | 75 | 58 | 2.0 | 3.0 | 0.00 | 0.00 | 0.00 | 57 | 1019.3 |
| 20260510162700 | 74 | 40 | 0.0 | 2.0 | 0.00 | 0.00 | 0.00 | 61 | 1019.4 |
| 20260510162157 | 74 | 90 | 0.0 | 1.0 | 0.00 | 0.00 | 0.00 | 59 | 1019.2 |
| 20260510161653 | 75 | 123 | 0.0 | 1.0 | 0.00 | 0.00 | 0.00 | 59 | 1019.3 |
| 20260510161150 | 75 | 80 | 0.0 | 1.0 | 0.00 | 0.00 | 0.00 | 61 | 1019.3 |
| 20260510160646 | 74 | 304 | 1.0 | 2.0 | 0.00 | 0.00 | 0.00 | 60 | 1019.0 |
| 20260510160142 | 73 | 313 | 0.0 | 0.0 | 0.00 | 0.00 | 0.00 | 62 | 1019.2 |
| 20260510155638 | 73 | 5 | 2.0 | 4.0 | 0.00 | 0.00 | 0.00 | 59 | 1019.0 |
| 20260510155134 | 73 | 77 | 0.0 | 1.0 | 0.00 | 0.00 | 0.00 | 60 | 1019.1 |
| 20260510154630 | 73 | 88 | 0.0 | 1.0 | 0.00 | 0.00 | 0.00 | 61 | 1018.9 |
| 20260510154125 | 73 | 47 | 1.0 | 1.0 | 0.00 | 0.00 | 0.00 | 60 | 1018.9 |
| 20260510153621 | 72 | 97 | 0.0 | 1.0 | 0.00 | 0.00 | 0.00 | 63 | 1018.7 |
| 20260510153118 | 72 | 37 | 2.0 | 2.0 | 0.00 | 0.00 | 0.00 | 61 | 1018.5 |
| 20260510152614 | 72 | 44 | 1.0 | 1.0 | 0.00 | 0.00 | 0.00 | 61 | 1018.6 |
| 20260510152110 | 72 | 0 | 4.0 | 8.0 | 0.00 | 0.00 | 0.00 | 60 | 1018.6 |
| 20260510151607 | 72 | 44 | 0.0 | 1.0 | 0.00 | 0.00 | 0.00 | 61 | 1018.6 |
| 20260510151106 | 72 | 37 | 2.0 | 2.0 | 0.00 | 0.00 | 0.00 | 62 | 1018.4 |
| 20260510150606 | 71 | 21 | 1.0 | 1.0 | 0.00 | 0.00 | 0.00 | 60 | 1018.4 |
| 20260510145558 | 71 | 54 | 0.0 | 1.0 | 0.00 | 0.00 | 0.00 | 64 | 1018.4 |
| 20260510145055 | 70 | 8 | 2.0 | 3.0 | 0.00 | 0.00 | 0.00 | 63 | 1018.5 |
| 20260510144551 | 71 | 277 | 2.0 | 2.0 | 0.00 | 0.00 | 0.00 | 62 | 1018.8 |
| 20260510144047 | 71 | 22 | 1.0 | 1.0 | 0.00 | 0.00 | 0.00 | 62 | 1018.6 |
| 20260510143543 | 70 | 31 | 3.0 | 3.0 | 0.00 | 0.00 | 0.00 | 62 | 1018.5 |
| 20260510143039 | 70 | 359 | 1.0 | 1.0 | 0.00 | 0.00 | 0.00 | 62 | 1018.5 |
| 20260510142536 | 69 | 92 | 0.0 | 0.0 | 0.00 | 0.00 | 0.00 | 65 | 1018.6 |
| 20260510142033 | 69 | 307 | 2.0 | 4.0 | 0.00 | 0.00 | 0.00 | 63 | 1018.4 |
| 20260510141530 | 69 | 44 | 0.0 | 1.0 | 0.00 | 0.00 | 0.00 | 64 | 1018.5 |
| 20260510141027 | 68 | 249 | 2.0 | 4.0 | 0.00 | 0.00 | 0.00 | 62 | 1018.2 |
| 20260510140523 | 68 | 36 | 1.0 | 2.0 | 0.00 | 0.00 | 0.00 | 63 | 1018.4 |
| 20260510140023 | 68 | 4 | 2.0 | 2.0 | 0.00 | 0.00 | 0.00 | 63 | 1018.2 |
| 20260510135519 | 67 | 10 | 0.0 | 2.0 | 0.00 | 0.00 | 0.00 | 64 | 1018.2 |
| 20260510135016 | 67 | 14 | 1.0 | 1.0 | 0.00 | 0.00 | 0.00 | 64 | 1018.0 |
| 20260510134513 | 66 | 265 | 1.0 | 1.0 | 0.00 | 0.00 | 0.00 | 65 | 1017.8 |
| 20260510134009 | 66 | 3 | 0.0 | 1.0 | 0.00 | 0.00 | 0.00 | 66 | 1018.0 |
| 20260510133505 | 65 | 293 | 0.0 | 0.0 | 0.00 | 0.00 | 0.00 | 67 | 1017.9 |
| 20260510133001 | 64 | 290 | 0.0 | 1.0 | 0.00 | 0.00 | 0.00 | 68 | 1018.2 |
| 20260510132458 | 64 | 14 | 0.0 | 0.0 | 0.00 | 0.00 | 0.00 | 68 | 1018.1 |
| 20260510131955 | 64 | 28 | 1.0 | 1.0 | 0.00 | 0.00 | 0.00 | 68 | 1017.9 |
| 20260510131453 | 64 | 2 | 2.0 | 3.0 | 0.00 | 0.00 | 0.00 | 67 | 1018.0 |
| 20260510130950 | 64 | 348 | 1.0 | 1.0 | 0.00 | 0.00 | 0.00 | 67 | 1018.0 |
| 20260510130446 | 64 | 1 | 1.0 | 4.0 | 0.00 | 0.00 | 0.00 | 67 | 1018.0 |
| 20260510125943 | 64 | 358 | 1.0 | 2.0 | 0.00 | 0.00 | 0.00 | 67 | 1017.7 |
| 20260510125440 | 64 | 149 | 0.0 | 0.0 | 0.00 | 0.00 | 0.00 | 68 | 1017.6 |
| 20260510124936 | 64 | 149 | 0.0 | 0.0 | 0.00 | 0.00 | 0.00 | 68 | 1017.4 |
| 20260510124433 | 63 | 149 | 0.0 | 0.0 | 0.00 | 0.00 | 0.00 | 69 | 1017.3 |
| 20260510123930 | 63 | 148 | 0.0 | 1.0 | 0.00 | 0.00 | 0.00 | 69 | 1017.3 |
| 20260510123425 | 62 | 148 | 0.0 | 0.0 | 0.00 | 0.00 | 0.00 | 70 | 1017.4 |
| 20260510122922 | 62 | 148 | 0.0 | 0.0 | 0.00 | 0.00 | 0.00 | 69 | 1017.3 |
| 20260510122417 | 62 | 148 | 0.0 | 0.0 | 0.00 | 0.00 | 0.00 | 69 | 1017.3 |
| 20260510121913 | 62 | 148 | 1.0 | 1.0 | 0.00 | 0.00 | 0.00 | 68 | 1017.2 |
| 20260510121411 | 62 | 148 | 0.0 | 0.0 | 0.00 | 0.00 | 0.00 | 68 | 1017.0 |
| 20260510120908 | 61 | 148 | 0.0 | 0.0 | 0.00 | 0.00 | 0.00 | 69 | 1017.1 |
| 20260510120405 | 61 | 148 | 0.0 | 1.0 | 0.00 | 0.00 | 0.00 | 70 | 1016.9 |
| 20260510115901 | 60 | 148 | 0.0 | 0.0 | 0.00 | 0.00 | 0.00 | 69 | 1016.6 |
| 20260510115358 | 60 | 148 | 1.0 | 1.0 | 0.00 | 0.00 | 0.00 | 70 | 1016.6 |
| 20260510114854 | 60 | 148 | 1.0 | 1.0 | 0.00 | 0.00 | 0.00 | 71 | 1016.3 |
| 20260510114351 | 59 | 148 | 0.0 | 0.0 | 0.00 | 0.00 | 0.00 | 71 | 1016.5 |
| 20260510113851 | 59 | 148 | 0.0 | 0.0 | 0.00 | 0.00 | 0.00 | 71 | 1016.3 |
| 20260510113347 | 59 | 148 | 0.0 | 0.0 | 0.00 | 0.00 | 0.00 | 72 | 1016.2 |
| 20260510112844 | 59 | 148 | 0.0 | 0.0 | 0.00 | 0.00 | 0.00 | 72 | 1016.1 |
| 20260510112342 | 59 | 152 | 0.0 | 0.0 | 0.00 | 0.00 | 0.00 | 71 | 1016.1 |
| 20260510111837 | 59 | 152 | 0.0 | 0.0 | 0.00 | 0.00 | 0.00 | 70 | 1016.1 |
| 20260510111334 | 59 | 105 | 0.0 | 0.0 | 0.00 | 0.00 | 0.00 | 70 | 1016.0 |
| 20260510110834 | 59 | 105 | 0.0 | 0.0 | 0.00 | 0.00 | 0.00 | 69 | 1016.1 |
| 20260510110332 | 59 | 105 | 0.0 | 0.0 | 0.00 | 0.00 | 0.00 | 69 | 1015.7 |
| 20260510105827 | 59 | 105 | 0.0 | 0.0 | 0.00 | 0.00 | 0.00 | 69 | 1015.8 |
| 20260510105327 | 60 | 105 | 0.0 | 0.0 | 0.00 | 0.00 | 0.00 | 69 | 1015.8 |
| 20260510104824 | 60 | 105 | 0.0 | 0.0 | 0.00 | 0.00 | 0.00 | 69 | 1015.8 |
| 20260510104321 | 60 | 105 | 0.0 | 0.0 | 0.00 | 0.00 | 0.00 | 69 | 1015.5 |
| 20260510103817 | 60 | 105 | 0.0 | 0.0 | 0.00 | 0.00 | 0.00 | 69 | 1015.3 |
| 20260510103314 | 60 | 105 | 0.0 | 0.0 | 0.00 | 0.00 | 0.00 | 70 | 1015.3 |
| 20260510102809 | 60 | 105 | 0.0 | 0.0 | 0.00 | 0.00 | 0.00 | 70 | 1015.5 |
| 20260510102306 | 60 | 105 | 0.0 | 0.0 | 0.00 | 0.00 | 0.00 | 69 | 1015.5 |
| 20260510101802 | 60 | 105 | 0.0 | 1.0 | 0.00 | 0.00 | 0.00 | 71 | 1015.8 |
| 20260510101301 | 60 | 105 | 0.0 | 0.0 | 0.00 | 0.00 | 0.00 | 68 | 1015.7 |
| 20260510100756 | 60 | 105 | 0.0 | 0.0 | 0.00 | 0.00 | 0.00 | 69 | 1015.8 |
| 20260510100255 | 60 | 105 | 0.0 | 0.0 | 0.00 | 0.00 | 0.00 | 69 | 1015.7 |
| 20260510095750 | 60 | 105 | 0.0 | 0.0 | 0.00 | 0.00 | 0.00 | 69 | 1015.5 |
| 20260510095245 | 60 | 105 | 0.0 | 0.0 | 0.00 | 0.00 | 0.00 | 70 | 1015.5 |
| 20260510094744 | 60 | 104 | 0.0 | 1.0 | 0.00 | 0.00 | 0.00 | 68 | 1015.7 |
| 20260510094240 | 60 | 90 | 0.0 | 0.0 | 0.00 | 0.00 | 0.00 | 68 | 1015.7 |
| 20260510093736 | 60 | 90 | 0.0 | 0.0 | 0.00 | 0.00 | 0.00 | 68 | 1015.7 |
| 20260510093234 | 60 | 90 | 0.0 | 0.0 | 0.00 | 0.00 | 0.00 | 66 | 1015.5 |
| 20260510092730 | 60 | 84 | 0.0 | 0.0 | 0.00 | 0.00 | 0.00 | 67 | 1015.4 |
| 20260510092226 | 60 | 84 | 0.0 | 0.0 | 0.00 | 0.00 | 0.00 | 66 | 1015.5 |
| 20260510091721 | 61 | 84 | 0.0 | 0.0 | 0.00 | 0.00 | 0.00 | 65 | 1015.3 |
| 20260510091218 | 61 | 84 | 0.0 | 0.0 | 0.00 | 0.00 | 0.00 | 64 | 1015.3 |
| 20260510090714 | 61 | 84 | 0.0 | 0.0 | 0.00 | 0.00 | 0.00 | 63 | 1015.5 |
| 20260510090212 | 62 | 84 | 0.0 | 0.0 | 0.00 | 0.00 | 0.00 | 62 | 1015.4 |
| 20260510085706 | 62 | 83 | 0.0 | 0.0 | 0.00 | 0.00 | 0.00 | 61 | 1015.4 |
| 20260510085202 | 63 | 83 | 0.0 | 0.0 | 0.00 | 0.00 | 0.00 | 59 | 1015.5 |
| 20260510084658 | 63 | 84 | 0.0 | 0.0 | 0.00 | 0.00 | 0.00 | 58 | 1015.4 |
| 20260510084155 | 64 | 342 | 0.0 | 4.0 | 0.00 | 0.00 | 0.00 | 57 | 1015.7 |
| 20260510083652 | 64 | 5 | 2.0 | 2.0 | 0.00 | 0.00 | 0.00 | 55 | 1015.7 |
| 20260510083149 | 65 | 351 | 0.0 | 2.0 | 0.00 | 0.00 | 0.00 | 55 | 1015.7 |
| 20260510082645 | 62 | 300 | 2.0 | 6.0 | 0.00 | 0.00 | 0.00 | 57 | 1015.2 |
| 20260510082140 | 62 | 329 | 2.0 | 6.0 | 0.00 | 0.00 | 0.00 | 62 | 1015.5 |
| 20260510081635 | 62 | 158 | 0.0 | 1.0 | 0.00 | 0.00 | 0.00 | 62 | 1014.7 |
| 20260510081132 | 62 | 156 | 0.0 | 0.0 | 0.00 | 0.00 | 0.00 | 63 | 1014.5 |
| 20260510080631 | 62 | 156 | 0.0 | 0.0 | 0.00 | 0.00 | 0.00 | 61 | 1014.5 |
| 20260510080128 | 62 | 156 | 0.0 | 0.0 | 0.00 | 0.00 | 0.00 | 61 | 1014.5 |
| 20260510075625 | 62 | 155 | 0.0 | 0.0 | 0.00 | 0.00 | 0.00 | 62 | 1014.3 |
| 20260510075122 | 62 | 155 | 0.0 | 0.0 | 0.00 | 0.00 | 0.00 | 60 | 1014.1 |
| 20260510074619 | 63 | 155 | 0.0 | 0.0 | 0.00 | 0.00 | 0.00 | 61 | 1014.3 |
| 20260510074115 | 63 | 156 | 0.0 | 0.0 | 0.00 | 0.00 | 0.00 | 60 | 1014.2 |
| 20260510073611 | 63 | 156 | 0.0 | 0.0 | 0.00 | 0.00 | 0.00 | 60 | 1014.1 |
| 20260510073108 | 63 | 123 | 0.0 | 0.0 | 0.00 | 0.00 | 0.00 | 59 | 1014.1 |
| 20260510072605 | 63 | 123 | 0.0 | 0.0 | 0.00 | 0.00 | 0.00 | 59 | 1014.3 |
| 20260510072101 | 64 | 124 | 0.0 | 0.0 | 0.00 | 0.00 | 0.00 | 59 | 1014.1 |
| 20260510071557 | 64 | 100 | 0.0 | 0.0 | 0.00 | 0.00 | 0.00 | 57 | 1014.2 |
| 20260510071055 | 64 | 103 | 0.0 | 1.0 | 0.00 | 0.00 | 0.00 | 58 | 1014.3 |
| 20260510070551 | 64 | 112 | 0.0 | 0.0 | 0.00 | 0.00 | 0.00 | 58 | 1014.5 |
| 20260510070049 | 64 | 191 | 1.0 | 4.0 | 0.00 | 0.00 | 0.00 | 58 | 1014.4 |
| 20260510065545 | 64 | 148 | 0.0 | 1.0 | 0.00 | 0.00 | 0.00 | 59 | 1014.5 |
| 20260510065041 | 64 | 150 | 0.0 | 1.0 | 0.00 | 0.00 | 0.00 | 59 | 1014.4 |
| 20260510064537 | 64 | 150 | 0.0 | 0.0 | 0.00 | 0.00 | 0.00 | 58 | 1014.5 |
| 20260510064034 | 64 | 147 | 0.0 | 0.0 | 0.00 | 0.00 | 0.00 | 58 | 1014.4 |
| 20260510063531 | 64 | 145 | 0.0 | 0.0 | 0.00 | 0.00 | 0.00 | 59 | 1014.2 |
| 20260510063028 | 64 | 144 | 0.0 | 0.0 | 0.00 | 0.00 | 0.00 | 58 | 1014.3 |
| 20260510062524 | 64 | 145 | 0.0 | 0.0 | 0.00 | 0.00 | 0.00 | 57 | 1014.0 |
| 20260510062019 | 65 | 144 | 0.0 | 0.0 | 0.00 | 0.00 | 0.00 | 56 | 1014.0 |
| 20260510061516 | 65 | 144 | 0.0 | 0.0 | 0.00 | 0.00 | 0.00 | 57 | 1014.0 |
| 20260510061013 | 65 | 144 | 0.0 | 0.0 | 0.00 | 0.00 | 0.00 | 56 | 1014.0 |
| 20260510060509 | 65 | 144 | 0.0 | 0.0 | 0.00 | 0.00 | 0.00 | 57 | 1013.9 |
| 20260510060006 | 65 | 145 | 0.0 | 0.0 | 0.00 | 0.00 | 0.00 | 56 | 1014.0 |
| 20260510055501 | 65 | 145 | 0.0 | 0.0 | 0.00 | 0.00 | 0.00 | 55 | 1014.1 |
| 20260510055000 | 65 | 145 | 0.0 | 0.0 | 0.00 | 0.00 | 0.00 | 55 | 1014.1 |
| 20260510054455 | 65 | 144 | 0.0 | 0.0 | 0.00 | 0.00 | 0.00 | 56 | 1013.9 |
| 20260510053950 | 65 | 144 | 0.0 | 0.0 | 0.00 | 0.00 | 0.00 | 56 | 1014.0 |
| 20260510053445 | 65 | 144 | 0.0 | 0.0 | 0.00 | 0.00 | 0.00 | 57 | 1013.9 |
| 20260510052942 | 65 | 144 | 0.0 | 0.0 | 0.00 | 0.00 | 0.00 | 56 | 1013.9 |
| 20260510052438 | 65 | 144 | 0.0 | 1.0 | 0.00 | 0.00 | 0.00 | 55 | 1014.0 |
| 20260510051934 | 65 | 144 | 0.0 | 0.0 | 0.00 | 0.00 | 0.00 | 56 | 1013.9 |
| 20260510051431 | 65 | 144 | 0.0 | 1.0 | 0.00 | 0.00 | 0.00 | 56 | 1013.9 |
| 20260510050927 | 65 | 144 | 0.0 | 0.0 | 0.00 | 0.00 | 0.00 | 55 | 1014.0 |
| 20260510050424 | 65 | 144 | 1.0 | 1.0 | 0.00 | 0.00 | 0.00 | 55 | 1013.7 |
| 20260510045921 | 65 | 144 | 0.0 | 0.0 | 0.00 | 0.04 | 0.04 | 56 | 1013.9 |
| 20260510045419 | 66 | 144 | 0.0 | 0.0 | 0.00 | 0.04 | 0.04 | 55 | 1014.0 |
| 20260510044915 | 66 | 144 | 0.0 | 0.0 | 0.00 | 0.04 | 0.04 | 55 | 1013.9 |
| 20260510044412 | 66 | 144 | 0.0 | 0.0 | 0.00 | 0.04 | 0.04 | 55 | 1013.7 |
| 20260510043909 | 66 | 144 | 0.0 | 0.0 | 0.00 | 0.04 | 0.04 | 56 | 1014.0 |
| 20260510043404 | 66 | 144 | 0.0 | 0.0 | 0.00 | 0.04 | 0.04 | 55 | 1013.9 |
| 20260510042903 | 66 | 144 | 0.0 | 0.0 | 0.00 | 0.04 | 0.04 | 55 | 1013.7 |
| 20260510042359 | 65 | 177 | 0.0 | 1.0 | 0.00 | 0.04 | 0.04 | 55 | 1013.6 |
| 20260510041854 | 65 | 179 | 1.0 | 1.0 | 0.00 | 0.04 | 0.04 | 55 | 1013.8 |
| 20260510041352 | 66 | 179 | 0.0 | 0.0 | 0.00 | 0.04 | 0.04 | 56 | 1013.8 |
| 20260510040849 | 66 | 179 | 0.0 | 0.0 | 0.00 | 0.04 | 0.04 | 56 | 1013.6 |
| 20260510040346 | 66 | 180 | 0.0 | 0.0 | 0.00 | 0.04 | 0.04 | 55 | 1013.8 |
| 20260510035841 | 66 | 179 | 0.0 | 0.0 | 0.00 | 0.04 | 0.04 | 54 | 1013.8 |
| 20260510035337 | 66 | 166 | 0.0 | 1.0 | 0.00 | 0.04 | 0.04 | 54 | 1013.5 |
| 20260510034833 | 66 | 178 | 0.0 | 0.0 | 0.00 | 0.04 | 0.04 | 54 | 1013.7 |
| 20260510034332 | 66 | 248 | 0.0 | 1.0 | 0.00 | 0.04 | 0.04 | 55 | 1013.5 |
| 20260510033828 | 66 | 138 | 0.0 | 0.0 | 0.00 | 0.04 | 0.04 | 56 | 1013.7 |
| 20260510033324 | 66 | 139 | 0.0 | 0.0 | 0.00 | 0.04 | 0.04 | 55 | 1013.6 |
| 20260510032821 | 66 | 138 | 0.0 | 0.0 | 0.00 | 0.04 | 0.04 | 55 | 1013.8 |
| 20260510032318 | 66 | 131 | 0.0 | 0.0 | 0.00 | 0.04 | 0.04 | 56 | 1013.7 |
| 20260510031813 | 66 | 120 | 0.0 | 0.0 | 0.00 | 0.04 | 0.04 | 55 | 1013.9 |
| 20260510031309 | 66 | 120 | 1.0 | 1.0 | 0.00 | 0.04 | 0.04 | 54 | 1013.7 |
| 20260510030803 | 66 | 120 | 1.0 | 1.0 | 0.00 | 0.04 | 0.04 | 54 | 1013.7 |
| 20260510030300 | 66 | 120 | 0.0 | 0.0 | 0.00 | 0.04 | 0.04 | 54 | 1013.5 |
| 20260510025757 | 66 | 120 | 1.0 | 1.0 | 0.00 | 0.04 | 0.04 | 53 | 1013.5 |
| 20260510025255 | 67 | 118 | 0.0 | 0.0 | 0.00 | 0.04 | 0.04 | 53 | 1013.6 |
| 20260510024751 | 67 | 117 | 0.0 | 0.0 | 0.00 | 0.04 | 0.04 | 54 | 1013.4 |
| 20260510024248 | 67 | 117 | 0.0 | 0.0 | 0.00 | 0.04 | 0.04 | 52 | 1013.5 |
| 20260510023744 | 67 | 117 | 0.0 | 0.0 | 0.00 | 0.04 | 0.04 | 53 | 1013.6 |
| 20260510023241 | 67 | 117 | 0.0 | 0.0 | 0.00 | 0.04 | 0.04 | 53 | 1013.4 |
| 20260510022737 | 68 | 117 | 0.0 | 0.0 | 0.00 | 0.04 | 0.04 | 54 | 1013.4 |
| 20260510022237 | 68 | 118 | 0.0 | 1.0 | 0.00 | 0.04 | 0.04 | 53 | 1013.3 |
| 20260510021732 | 68 | 172 | 0.0 | 0.0 | 0.00 | 0.04 | 0.04 | 54 | 1013.3 |
| 20260510021230 | 68 | 172 | 0.0 | 0.0 | 0.00 | 0.04 | 0.04 | 53 | 1013.3 |
| 20260510020730 | 68 | 172 | 0.0 | 0.0 | 0.00 | 0.04 | 0.04 | 52 | 1013.1 |
| 20260510020226 | 68 | 173 | 0.0 | 0.0 | 0.00 | 0.04 | 0.04 | 54 | 1013.2 |
| 20260510015722 | 68 | 172 | 0.0 | 0.0 | 0.00 | 0.04 | 0.04 | 53 | 1013.0 |
| 20260510015218 | 68 | 172 | 0.0 | 0.0 | 0.00 | 0.04 | 0.04 | 52 | 1013.1 |
| 20260510014713 | 68 | 172 | 0.0 | 0.0 | 0.00 | 0.04 | 0.04 | 53 | 1013.0 |
| 20260510014211 | 68 | 172 | 0.0 | 0.0 | 0.00 | 0.04 | 0.04 | 52 | 1013.0 |
| 20260510013712 | 69 | 172 | 0.0 | 0.0 | 0.00 | 0.04 | 0.04 | 54 | 1012.9 |
| 20260510013208 | 69 | 173 | 0.0 | 0.0 | 0.00 | 0.04 | 0.04 | 54 | 1012.7 |
| 20260510012708 | 69 | 172 | 0.0 | 0.0 | 0.00 | 0.04 | 0.04 | 51 | 1012.8 |
| 20260510012203 | 69 | 172 | 0.0 | 0.0 | 0.00 | 0.04 | 0.04 | 52 | 1012.6 |
| 20260510011658 | 69 | 173 | 0.0 | 0.0 | 0.00 | 0.04 | 0.04 | 51 | 1012.5 |
| 20260510011154 | 70 | 173 | 0.0 | 0.0 | 0.00 | 0.04 | 0.04 | 52 | 1012.6 |
| 20260510010650 | 70 | 173 | 0.0 | 0.0 | 0.00 | 0.04 | 0.04 | 52 | 1012.6 |
| 20260510010148 | 71 | 173 | 0.0 | 0.0 | 0.00 | 0.04 | 0.04 | 51 | 1012.5 |
| 20260510005643 | 71 | 173 | 0.0 | 0.0 | 0.00 | 0.04 | 0.04 | 48 | 1012.4 |
| 20260510005141 | 72 | 173 | 0.0 | 0.0 | 0.00 | 0.04 | 0.04 | 48 | 1012.4 |
| 20260510004639 | 73 | 173 | 0.0 | 0.0 | 0.00 | 0.04 | 0.04 | 47 | 1012.3 |
| 20260510004137 | 73 | 173 | 0.0 | 0.0 | 0.00 | 0.04 | 0.04 | 46 | 1012.1 |
| 20260510003633 | 74 | 173 | 0.0 | 0.0 | 0.00 | 0.04 | 0.04 | 43 | 1012.2 |
| 20260510003129 | 74 | 174 | 0.0 | 0.0 | 0.00 | 0.04 | 0.04 | 44 | 1011.9 |
| 20260510002629 | 75 | 176 | 0.0 | 0.0 | 0.00 | 0.04 | 0.04 | 43 | 1012.0 |
| 20260510002127 | 75 | 176 | 0.0 | 0.0 | 0.00 | 0.04 | 0.04 | 42 | 1011.9 |
| 20260510001623 | 76 | 176 | 0.0 | 0.0 | 0.00 | 0.04 | 0.04 | 40 | 1011.8 |
| 20260510001122 | 77 | 176 | 0.0 | 0.0 | 0.00 | 0.04 | 0.04 | 39 | 1011.6 |
| 20260510000622 | 77 | 176 | 0.0 | 0.0 | 0.00 | 0.04 | 0.04 | 39 | 1011.9 |
| 20260510000120 | 78 | 176 | 1.0 | 1.0 | 0.00 | 0.04 | 0.04 | 37 | 1011.9 |
| 20260509235616 | 79 | 217 | 1.0 | 1.0 | 0.00 | 0.04 | 0.04 | 35 | 1011.7 |
| 20260509235113 | 79 | 146 | 1.0 | 1.0 | 0.00 | 0.04 | 0.04 | 35 | 1011.6 |
| 20260509234608 | 80 | 243 | 1.0 | 1.0 | 0.00 | 0.04 | 0.04 | 34 | 1011.6 |
| 20260509234107 | 80 | 254 | 0.0 | 1.0 | 0.00 | 0.04 | 0.04 | 34 | 1011.8 |
| 20260509233604 | 80 | 203 | 1.0 | 2.0 | 0.00 | 0.04 | 0.04 | 33 | 1011.6 |
| 20260509233101 | 80 | 156 | 1.0 | 1.0 | 0.00 | 0.04 | 0.04 | 33 | 1011.6 |
| 20260509232557 | 80 | 136 | 2.0 | 2.0 | 0.00 | 0.04 | 0.04 | 33 | 1011.6 |
| 20260509232054 | 81 | 24 | 0.0 | 1.0 | 0.00 | 0.04 | 0.04 | 34 | 1011.8 |
| 20260509231551 | 82 | 135 | 0.0 | 2.0 | 0.00 | 0.04 | 0.04 | 33 | 1011.5 |
| 20260509231049 | 82 | 298 | 0.0 | 1.0 | 0.00 | 0.04 | 0.04 | 32 | 1011.7 |
| 20260509230545 | 81 | 334 | 1.0 | 2.0 | 0.00 | 0.04 | 0.04 | 30 | 1011.6 |
| 20260509230043 | 81 | 292 | 1.0 | 3.0 | 0.00 | 0.04 | 0.04 | 30 | 1011.8 |
| 20260509225537 | 81 | 328 | 2.0 | 2.0 | 0.00 | 0.04 | 0.04 | 31 | 1011.7 |
| 20260509225033 | 82 | 143 | 0.0 | 2.0 | 0.00 | 0.04 | 0.04 | 31 | 1011.6 |
| 20260509224529 | 82 | 111 | 0.0 | 2.0 | 0.00 | 0.04 | 0.04 | 30 | 1011.7 |
| 20260509224026 | 81 | 267 | 1.0 | 3.0 | 0.00 | 0.04 | 0.04 | 31 | 1011.8 |
| 20260509223523 | 81 | 243 | 2.0 | 3.0 | 0.00 | 0.04 | 0.04 | 33 | 1011.8 |
| 20260509223021 | 81 | 120 | 0.0 | 2.0 | 0.00 | 0.04 | 0.04 | 31 | 1011.9 |
| 20260509222517 | 82 | 138 | 2.0 | 4.0 | 0.00 | 0.04 | 0.04 | 30 | 1011.7 |
| 20260509222012 | 81 | 305 | 0.0 | 2.0 | 0.00 | 0.04 | 0.04 | 30 | 1011.6 |
| 20260509221508 | 81 | 292 | 1.0 | 3.0 | 0.00 | 0.04 | 0.04 | 33 | 1011.7 |
| 20260509221004 | 81 | 239 | 2.0 | 6.0 | 0.00 | 0.04 | 0.04 | 30 | 1011.6 |
| 20260509220501 | 80 | 151 | 0.0 | 1.0 | 0.00 | 0.04 | 0.04 | 33 | 1011.7 |
| 20260509215956 | 80 | 284 | 2.0 | 3.0 | 0.00 | 0.04 | 0.04 | 31 | 1011.5 |
| 20260509215452 | 80 | 276 | 1.0 | 2.0 | 0.00 | 0.04 | 0.04 | 36 | 1011.5 |
| 20260509214950 | 80 | 284 | 0.0 | 2.0 | 0.00 | 0.04 | 0.04 | 35 | 1011.6 |
| 20260509214447 | 80 | 257 | 0.0 | 2.0 | 0.00 | 0.04 | 0.04 | 32 | 1011.5 |
| 20260509213943 | 80 | 292 | 2.0 | 6.0 | 0.00 | 0.04 | 0.04 | 33 | 1011.5 |
| 20260509213439 | 80 | 238 | 2.0 | 3.0 | 0.00 | 0.04 | 0.04 | 36 | 1011.4 |
| 20260509212937 | 79 | 105 | 0.0 | 2.0 | 0.00 | 0.04 | 0.04 | 37 | 1011.6 |
| 20260509212434 | 80 | 132 | 0.0 | 6.0 | 0.00 | 0.04 | 0.04 | 37 | 1011.4 |
| 20260509211930 | 80 | 139 | 0.0 | 1.0 | 0.00 | 0.04 | 0.04 | 38 | 1011.5 |
| 20260509211426 | 79 | 149 | 2.0 | 3.0 | 0.00 | 0.04 | 0.04 | 38 | 1011.6 |
| 20260509210923 | 80 | 143 | 2.0 | 3.0 | 0.00 | 0.04 | 0.04 | 37 | 1011.7 |
| 20260509210420 | 80 | 129 | 3.0 | 3.0 | 0.00 | 0.04 | 0.04 | 38 | 1011.6 |
| 20260509205915 | 80 | 345 | 2.0 | 2.0 | 0.00 | 0.04 | 0.04 | 36 | 1011.6 |
| 20260509205415 | 80 | 215 | 1.0 | 2.0 | 0.00 | 0.04 | 0.04 | 39 | 1011.7 |
| 20260509204911 | 80 | 140 | 2.0 | 2.0 | 0.00 | 0.04 | 0.04 | 36 | 1011.6 |
| 20260509204408 | 79 | 276 | 1.0 | 3.0 | 0.00 | 0.04 | 0.04 | 38 | 1011.8 |
| 20260509203904 | 79 | 132 | 0.0 | 3.0 | 0.00 | 0.04 | 0.04 | 41 | 1011.8 |
| 20260509203400 | 79 | 21 | 0.0 | 2.0 | 0.00 | 0.04 | 0.04 | 38 | 1012.0 |
| 20260509202858 | 78 | 138 | 1.0 | 2.0 | 0.00 | 0.04 | 0.04 | 39 | 1012.1 |
| 20260509202353 | 79 | 121 | 2.0 | 4.0 | 0.00 | 0.04 | 0.04 | 37 | 1012.0 |